Back to Top

Language: 

My Weather Underground Personal Weather Station Historical Data with Graphs...

Delerius Weather Station Historical Data
Daily Summary for January 18, 2018 Units:  Both    English   Metric
« Previous Day
Next Day »
Daily Weekly Monthly Yearly Custom
  High: Low: Average:
Temperature: 46.2 °F /  7.9 °C 34.9 °F /  1.6 °C 38.4 °F /  3.6 °C
Dew Point: 43.7 °F /  6.5 °C 33.3 °F /  0.7 °C 36.2 °F /  2.3 °C
Humidity: 97% 86% 92%
Wind Speed: 28.0mph /  45.1km/h - 9mph /  14.5km/h
Wind Gust: 43.0mph /  69.2km/h - -
Wind- - West
Pressure: 29.62 in /  1002.9 hPa 28.93 in /  979.6 hPa -
Precipitation: 0.14 in /  3.56 mm    
Historical Graphs
 
 
Tabular Data for January 18, 2018
Time Temperature Dew Point Pressure Wind Wind Speed Wind Gust Humidity Rainfall Rate (Hourly) solar Conditions
00:02 34.9 °F /  1.6 °C 33.6 °F /  0.9 °C 29.17in /  987.7hPa South 6.0mph /  9.7km/h 10.0mph /  16.1km/h 95% 0.03in /  0.76mm 0 W/m2
00:07 35.1 °F /  1.7 °C 33.8 °F /  1 °C 29.17in /  987.7hPa South 7.0mph /  11.3km/h 16.0mph /  25.7km/h 95% 0.04in /  1.02mm 0 W/m2
00:12 35.2 °F /  1.8 °C 34.0 °F /  1.1 °C 29.16in /  987.4hPa South 8.0mph /  12.9km/h 14.0mph /  22.5km/h 95% 0.04in /  1.02mm 0 W/m2
00:17 35.4 °F /  1.9 °C 34.4 °F /  1.3 °C 29.15in /  987hPa South 8.0mph /  12.9km/h 14.0mph /  22.5km/h 96% 0.04in /  1.02mm 0 W/m2
00:22 35.8 °F /  2.1 °C 34.8 °F /  1.6 °C 29.13in /  986.3hPa South 8.0mph /  12.9km/h 13.0mph /  20.9km/h 96% 0.03in /  0.76mm 0 W/m2
00:27 36.0 °F /  2.2 °C 34.9 °F /  1.6 °C 29.13in /  986.3hPa SSW 8.0mph /  12.9km/h 13.0mph /  20.9km/h 96% 0.03in /  0.76mm 0 W/m2
00:32 36.3 °F /  2.4 °C 35.3 °F /  1.8 °C 29.11in /  985.7hPa South 8.0mph /  12.9km/h 14.0mph /  22.5km/h 96% 0.03in /  0.76mm 0 W/m2
00:37 36.5 °F /  2.5 °C 35.5 °F /  1.9 °C 29.10in /  985.3hPa South 7.0mph /  11.3km/h 12.0mph /  19.3km/h 96% 0.02in /  0.51mm 0 W/m2
00:42 36.7 °F /  2.6 °C 35.6 °F /  2 °C 29.09in /  985hPa South 9.0mph /  14.5km/h 13.0mph /  20.9km/h 96% 0.03in /  0.76mm 0 W/m2
00:47 37.0 °F /  2.8 °C 36.0 °F /  2.2 °C 29.08in /  984.6hPa SSW 8.0mph /  12.9km/h 14.0mph /  22.5km/h 96% 0.02in /  0.51mm 0 W/m2
00:52 37.2 °F /  2.9 °C 36.2 °F /  2.3 °C 29.08in /  984.6hPa SSW 8.0mph /  12.9km/h 14.0mph /  22.5km/h 96% 0.02in /  0.51mm 0 W/m2
00:57 37.4 °F /  3 °C 36.4 °F /  2.4 °C 29.07in /  984.3hPa SSW 5.0mph /  8km/h 9.0mph /  14.5km/h 96% 0.03in /  0.76mm 0 W/m2
01:02 37.6 °F /  3.1 °C 36.5 °F /  2.5 °C 29.06in /  984hPa SSW 8.0mph /  12.9km/h 14.0mph /  22.5km/h 96% 0.03in /  0.76mm 0 W/m2
01:07 38.5 °F /  3.6 °C 37.4 °F /  3 °C 29.05in /  983.6hPa SW 9.0mph /  14.5km/h 21.0mph /  33.8km/h 96% 0.03in /  0.76mm 0 W/m2
01:12 39.0 °F /  3.9 °C 38.2 °F /  3.4 °C 29.05in /  983.6hPa SW 11.0mph /  17.7km/h 19.0mph /  30.6km/h 97% 0.02in /  0.51mm 0 W/m2
01:17 39.6 °F /  4.2 °C 38.8 °F /  3.8 °C 29.04in /  983.3hPa SW 11.0mph /  17.7km/h 15.0mph /  24.1km/h 97% 0.03in /  0.76mm 0 W/m2
01:22 39.9 °F /  4.4 °C 39.1 °F /  3.9 °C 29.04in /  983.3hPa SW 9.0mph /  14.5km/h 15.0mph /  24.1km/h 97% 0.03in /  0.76mm 0 W/m2
01:27 40.3 °F /  4.6 °C 39.2 °F /  4 °C 29.04in /  983.3hPa WSW 9.0mph /  14.5km/h 13.0mph /  20.9km/h 96% 0.03in /  0.76mm 0 W/m2
01:32 41.4 °F /  5.2 °C 40.6 °F /  4.8 °C 29.03in /  983hPa WSW 18.0mph /  29km/h 35.0mph /  56.3km/h 97% 0.04in /  1.02mm 0 W/m2
01:37 43.0 °F /  6.1 °C 42.2 °F /  5.7 °C 29.02in /  982.6hPa West 18.0mph /  29km/h 28.0mph /  45.1km/h 97% 0.04in /  1.02mm 0 W/m2
01:43 43.9 °F /  6.6 °C 43.1 °F /  6.2 °C 29.02in /  982.6hPa West 17.0mph /  27.4km/h 27.0mph /  43.5km/h 97% 0.03in /  0.76mm 0 W/m2
01:48 44.4 °F /  6.9 °C 43.4 °F /  6.3 °C 29.02in /  982.6hPa West 18.0mph /  29km/h 28.0mph /  45.1km/h 96% 0.04in /  1.02mm 0 W/m2
01:53 44.8 °F /  7.1 °C 43.4 °F /  6.3 °C 29.02in /  982.6hPa WSW 18.0mph /  29km/h 28.0mph /  45.1km/h 95% 0.04in /  1.02mm 0 W/m2
01:58 45.3 °F /  7.4 °C 43.7 °F /  6.5 °C 29.00in /  981.9hPa West 22.0mph /  35.4km/h 31.0mph /  49.9km/h 94% 0.03in /  0.76mm 0 W/m2
02:03 45.5 °F /  7.5 °C 43.6 °F /  6.4 °C 29.00in /  981.9hPa West 19.0mph /  30.6km/h 29.0mph /  46.7km/h 93% 0.03in /  0.76mm 0 W/m2
02:08 45.7 °F /  7.6 °C 43.5 °F /  6.4 °C 28.99in /  981.6hPa West 20.0mph /  32.2km/h 32.0mph /  51.5km/h 92% 0.02in /  0.51mm 0 W/m2
02:13 45.9 °F /  7.7 °C 43.7 °F /  6.5 °C 28.99in /  981.6hPa WSW 20.0mph /  32.2km/h 33.0mph /  53.1km/h 92% 0.03in /  0.76mm 0 W/m2
02:18 46.0 °F /  7.8 °C 43.6 °F /  6.4 °C 28.98in /  981.3hPa WSW 22.0mph /  35.4km/h 29.0mph /  46.7km/h 91% 0.02in /  0.51mm 0 W/m2
02:23 46.2 °F /  7.9 °C 43.4 °F /  6.3 °C 28.98in /  981.3hPa West 19.0mph /  30.6km/h 27.0mph /  43.5km/h 90% 0.02in /  0.51mm 0 W/m2
02:28 46.2 °F /  7.9 °C 43.4 °F /  6.3 °C 28.99in /  981.6hPa West 23.0mph /  37km/h 35.0mph /  56.3km/h 90% 0.02in /  0.51mm 0 W/m2
02:33 46.0 °F /  7.8 °C 43.3 °F /  6.3 °C 28.98in /  981.3hPa West 20.0mph /  32.2km/h 32.0mph /  51.5km/h 90% 0.02in /  0.51mm 0 W/m2
02:38 46.0 °F /  7.8 °C 43.3 °F /  6.3 °C 28.98in /  981.3hPa West 20.0mph /  32.2km/h 28.0mph /  45.1km/h 90% 0.02in /  0.51mm 0 W/m2
02:43 46.0 °F /  7.8 °C 43.0 °F /  6.1 °C 28.97in /  980.9hPa West 20.0mph /  32.2km/h 31.0mph /  49.9km/h 89% 0.02in /  0.51mm 0 W/m2
02:48 46.2 °F /  7.9 °C 42.9 °F /  6.1 °C 28.97in /  980.9hPa West 23.0mph /  37km/h 41.0mph /  66km/h 88% 0.02in /  0.51mm 0 W/m2
02:53 46.2 °F /  7.9 °C 42.6 °F /  5.9 °C 28.96in /  980.6hPa WSW 20.0mph /  32.2km/h 31.0mph /  49.9km/h 87% 0.02in /  0.51mm 0 W/m2
02:58 46.0 °F /  7.8 °C 42.7 °F /  5.9 °C 28.96in /  980.6hPa WSW 19.0mph /  30.6km/h 37.0mph /  59.5km/h 88% 0.02in /  0.51mm 0 W/m2
03:03 45.9 °F /  7.7 °C 42.5 °F /  5.8 °C 28.96in /  980.6hPa WSW 21.0mph /  33.8km/h 31.0mph /  49.9km/h 88% 0.02in /  0.51mm 0 W/m2
03:08 45.7 °F /  7.6 °C 42.6 °F /  5.9 °C 28.95in /  980.2hPa WSW 21.0mph /  33.8km/h 30.0mph /  48.3km/h 89% 0.02in /  0.51mm 0 W/m2
03:13 45.7 °F /  7.6 °C 42.6 °F /  5.9 °C 28.95in /  980.2hPa WSW 20.0mph /  32.2km/h 28.0mph /  45.1km/h 89% 0.01in /  0.25mm 0 W/m2
03:18 45.7 °F /  7.6 °C 42.6 °F /  5.9 °C 28.94in /  979.9hPa WSW 19.0mph /  30.6km/h 28.0mph /  45.1km/h 89% 0.02in /  0.51mm 0 W/m2
03:23 45.7 °F /  7.6 °C 42.6 °F /  5.9 °C 28.94in /  979.9hPa WSW 25.0mph /  40.2km/h 36.0mph /  57.9km/h 89% 0.02in /  0.51mm 0 W/m2
03:28 45.7 °F /  7.6 °C 42.3 °F /  5.7 °C 28.93in /  979.6hPa WSW 22.0mph /  35.4km/h 35.0mph /  56.3km/h 88% 0.02in /  0.51mm 0 W/m2
03:33 45.7 °F /  7.6 °C 42.0 °F /  5.6 °C 28.94in /  979.9hPa West 28.0mph /  45.1km/h 41.0mph /  66km/h 87% 0.01in /  0.25mm 0 W/m2
03:38 45.7 °F /  7.6 °C 41.7 °F /  5.4 °C 28.95in /  980.2hPa West 27.0mph /  43.5km/h 43.0mph /  69.2km/h 86% 0.01in /  0.25mm 0 W/m2
03:43 45.3 °F /  7.4 °C 41.4 °F /  5.2 °C 28.95in /  980.2hPa West 27.0mph /  43.5km/h 42.0mph /  67.6km/h 86% 0.01in /  0.25mm 0 W/m2
03:48 44.8 °F /  7.1 °C 41.1 °F /  5.1 °C 28.96in /  980.6hPa West 24.0mph /  38.6km/h 33.0mph /  53.1km/h 87% 0.01in /  0.25mm 0 W/m2
03:53 44.4 °F /  6.9 °C 40.8 °F /  4.9 °C 28.97in /  980.9hPa West 22.0mph /  35.4km/h 32.0mph /  51.5km/h 87% 0.01in /  0.25mm 0 W/m2
03:58 44.1 °F /  6.7 °C 40.4 °F /  4.7 °C 28.97in /  980.9hPa West 23.0mph /  37km/h 39.0mph /  62.8km/h 87% 0.01in /  0.25mm 0 W/m2
04:03 43.5 °F /  6.4 °C 40.5 °F /  4.7 °C 28.98in /  981.3hPa West 20.0mph /  32.2km/h 33.0mph /  53.1km/h 89% 0.01in /  0.25mm 0 W/m2
04:08 43.3 °F /  6.3 °C 40.3 °F /  4.6 °C 28.98in /  981.3hPa West 22.0mph /  35.4km/h 35.0mph /  56.3km/h 89% 0.01in /  0.25mm 0 W/m2
04:13 43.3 °F /  6.3 °C 40.6 °F /  4.8 °C 28.98in /  981.3hPa West 22.0mph /  35.4km/h 30.0mph /  48.3km/h 90% 0.01in /  0.25mm 0 W/m2
04:18 43.2 °F /  6.2 °C 40.4 °F /  4.7 °C 29.02in /  982.6hPa WNW 25.0mph /  40.2km/h 34.0mph /  54.7km/h 90% 0.00in /  0mm 0 W/m2
04:23 40.5 °F /  4.7 °C 36.9 °F /  2.7 °C 29.05in /  983.6hPa NW 12.0mph /  19.3km/h 19.0mph /  30.6km/h 87% 0.01in /  0.25mm 0 W/m2
04:28 38.8 °F /  3.8 °C 35.6 °F /  2 °C 29.07in /  984.3hPa NW 15.0mph /  24.1km/h 27.0mph /  43.5km/h 88% 0.01in /  0.25mm 0 W/m2
04:33 37.4 °F /  3 °C 34.7 °F /  1.5 °C 29.09in /  985hPa NW 13.0mph /  20.9km/h 24.0mph /  38.6km/h 90% 0.01in /  0.25mm 0 W/m2
04:39 36.9 °F /  2.7 °C 34.5 °F /  1.4 °C 29.11in /  985.7hPa NW 15.0mph /  24.1km/h 25.0mph /  40.2km/h 91% 0.01in /  0.25mm 0 W/m2
04:44 36.5 °F /  2.5 °C 34.1 °F /  1.2 °C 29.13in /  986.3hPa WNW 17.0mph /  27.4km/h 27.0mph /  43.5km/h 91% 0.01in /  0.25mm 0 W/m2
04:49 36.3 °F /  2.4 °C 34.2 °F /  1.2 °C 29.14in /  986.7hPa WNW 15.0mph /  24.1km/h 26.0mph /  41.8km/h 92% 0.01in /  0.25mm 0 W/m2
04:54 36.3 °F /  2.4 °C 34.2 °F /  1.2 °C 29.16in /  987.4hPa WNW 14.0mph /  22.5km/h 25.0mph /  40.2km/h 92% 0.01in /  0.25mm 0 W/m2
04:59 36.3 °F /  2.4 °C 34.2 °F /  1.2 °C 29.18in /  988hPa WNW 11.0mph /  17.7km/h 15.0mph /  24.1km/h 92% 0.01in /  0.25mm 0 W/m2
05:04 36.5 °F /  2.5 °C 34.4 °F /  1.3 °C 29.20in /  988.7hPa WNW 13.0mph /  20.9km/h 24.0mph /  38.6km/h 92% 0.01in /  0.25mm 0 W/m2
05:09 36.5 °F /  2.5 °C 34.4 °F /  1.3 °C 29.21in /  989.1hPa NW 17.0mph /  27.4km/h 29.0mph /  46.7km/h 92% 0.01in /  0.25mm 0 W/m2
05:14 36.7 °F /  2.6 °C 34.6 °F /  1.4 °C 29.22in /  989.4hPa NW 14.0mph /  22.5km/h 28.0mph /  45.1km/h 92% 0.01in /  0.25mm 0 W/m2
05:19 36.7 °F /  2.6 °C 34.3 °F /  1.3 °C 29.24in /  990.1hPa NW 12.0mph /  19.3km/h 20.0mph /  32.2km/h 91% 0.00in /  0mm 0 W/m2
05:24 36.7 °F /  2.6 °C 34.3 °F /  1.3 °C 29.25in /  990.4hPa NW 14.0mph /  22.5km/h 24.0mph /  38.6km/h 91% 0.00in /  0mm 0 W/m2
05:29 36.9 °F /  2.7 °C 34.5 °F /  1.4 °C 29.26in /  990.7hPa WNW 13.0mph /  20.9km/h 26.0mph /  41.8km/h 91% 0.00in /  0mm 0 W/m2
05:34 36.9 °F /  2.7 °C 34.2 °F /  1.2 °C 29.27in /  991.1hPa NW 14.0mph /  22.5km/h 21.0mph /  33.8km/h 90% 0.00in /  0mm 0 W/m2
05:39 36.9 °F /  2.7 °C 34.2 °F /  1.2 °C 29.27in /  991.1hPa WNW 11.0mph /  17.7km/h 16.0mph /  25.7km/h 90% 0.00in /  0mm 0 W/m2
05:44 36.9 °F /  2.7 °C 34.2 °F /  1.2 °C 29.29in /  991.8hPa WNW 10.0mph /  16.1km/h 14.0mph /  22.5km/h 90% 0.00in /  0mm 0 W/m2
05:49 36.9 °F /  2.7 °C 34.2 °F /  1.2 °C 29.29in /  991.8hPa NW 9.0mph /  14.5km/h 16.0mph /  25.7km/h 90% 0.00in /  0mm 0 W/m2
05:54 36.9 °F /  2.7 °C 34.2 °F /  1.2 °C 29.30in /  992.1hPa WNW 9.0mph /  14.5km/h 14.0mph /  22.5km/h 90% 0.00in /  0mm 0 W/m2
05:59 36.9 °F /  2.7 °C 34.2 °F /  1.2 °C 29.31in /  992.4hPa WNW 11.0mph /  17.7km/h 16.0mph /  25.7km/h 90% 0.00in /  0mm 0 W/m2
06:04 36.9 °F /  2.7 °C 34.2 °F /  1.2 °C 29.31in /  992.4hPa WNW 9.0mph /  14.5km/h 15.0mph /  24.1km/h 90% 0.00in /  0mm 0 W/m2
06:09 36.7 °F /  2.6 °C 34.0 °F /  1.1 °C 29.32in /  992.8hPa WNW 12.0mph /  19.3km/h 20.0mph /  32.2km/h 90% 0.00in /  0mm 0 W/m2
06:14 36.7 °F /  2.6 °C 34.0 °F /  1.1 °C 29.32in /  992.8hPa WNW 10.0mph /  16.1km/h 14.0mph /  22.5km/h 90% 0.00in /  0mm 0 W/m2
06:19 36.7 °F /  2.6 °C 34.0 °F /  1.1 °C 29.33in /  993.1hPa WNW 11.0mph /  17.7km/h 18.0mph /  29km/h 90% 0.00in /  0mm 0 W/m2
06:24 36.7 °F /  2.6 °C 34.0 °F /  1.1 °C 29.33in /  993.1hPa WNW 11.0mph /  17.7km/h 21.0mph /  33.8km/h 90% 0.00in /  0mm 0 W/m2
06:29 36.7 °F /  2.6 °C 34.0 °F /  1.1 °C 29.34in /  993.5hPa WNW 8.0mph /  12.9km/h 15.0mph /  24.1km/h 90% 0.00in /  0mm 0 W/m2
06:34 36.5 °F /  2.5 °C 33.8 °F /  1 °C 29.34in /  993.5hPa WNW 11.0mph /  17.7km/h 19.0mph /  30.6km/h 90% 0.00in /  0mm 0 W/m2
06:39 36.5 °F /  2.5 °C 33.8 °F /  1 °C 29.35in /  993.8hPa WNW 14.0mph /  22.5km/h 23.0mph /  37km/h 90% 0.00in /  0mm 0 W/m2
06:44 36.5 °F /  2.5 °C 33.8 °F /  1 °C 29.35in /  993.8hPa WNW 10.0mph /  16.1km/h 16.0mph /  25.7km/h 90% 0.00in /  0mm 0 W/m2
06:49 36.3 °F /  2.4 °C 33.7 °F /  0.9 °C 29.36in /  994.1hPa WNW 12.0mph /  19.3km/h 18.0mph /  29km/h 90% 0.00in /  0mm 0 W/m2
06:54 36.3 °F /  2.4 °C 33.7 °F /  0.9 °C 29.36in /  994.1hPa WNW 12.0mph /  19.3km/h 20.0mph /  32.2km/h 90% 0.00in /  0mm 0 W/m2
06:59 36.3 °F /  2.4 °C 33.7 °F /  0.9 °C 29.37in /  994.5hPa WNW 9.0mph /  14.5km/h 24.0mph /  38.6km/h 90% 0.00in /  0mm 0 W/m2
07:04 36.1 °F /  2.3 °C 33.5 °F /  0.8 °C 29.37in /  994.5hPa WNW 11.0mph /  17.7km/h 20.0mph /  32.2km/h 90% 0.00in /  0mm 0 W/m2
07:09 36.1 °F /  2.3 °C 33.5 °F /  0.8 °C 29.38in /  994.8hPa WNW 12.0mph /  19.3km/h 16.0mph /  25.7km/h 90% 0.00in /  0mm 0 W/m2
07:14 36.1 °F /  2.3 °C 33.5 °F /  0.8 °C 29.38in /  994.8hPa WNW 11.0mph /  17.7km/h 18.0mph /  29km/h 90% 0.00in /  0mm 0 W/m2
07:19 36.1 °F /  2.3 °C 33.5 °F /  0.8 °C 29.38in /  994.8hPa WNW 12.0mph /  19.3km/h 16.0mph /  25.7km/h 90% 0.00in /  0mm 0 W/m2
07:24 36.1 °F /  2.3 °C 33.5 °F /  0.8 °C 29.38in /  994.8hPa WNW 12.0mph /  19.3km/h 21.0mph /  33.8km/h 90% 0.00in /  0mm 0 W/m2
07:29 36.0 °F /  2.2 °C 33.3 °F /  0.7 °C 29.39in /  995.1hPa WNW 13.0mph /  20.9km/h 20.0mph /  32.2km/h 90% 0.00in /  0mm 0 W/m2
07:35 36.0 °F /  2.2 °C 33.3 °F /  0.7 °C 29.39in /  995.1hPa WNW 11.0mph /  17.7km/h 16.0mph /  25.7km/h 90% 0.00in /  0mm 0 W/m2
07:40 36.0 °F /  2.2 °C 33.3 °F /  0.7 °C 29.39in /  995.1hPa West 11.0mph /  17.7km/h 15.0mph /  24.1km/h 90% 0.00in /  0mm 0 W/m2
07:45 36.0 °F /  2.2 °C 33.3 °F /  0.7 °C 29.39in /  995.1hPa West 11.0mph /  17.7km/h 19.0mph /  30.6km/h 90% 0.00in /  0mm 0 W/m2
07:50 36.0 °F /  2.2 °C 33.3 °F /  0.7 °C 29.40in /  995.5hPa WNW 10.0mph /  16.1km/h 14.0mph /  22.5km/h 90% 0.00in /  0mm 0 W/m2
07:55 36.0 °F /  2.2 °C 33.3 °F /  0.7 °C 29.40in /  995.5hPa WNW 10.0mph /  16.1km/h 14.0mph /  22.5km/h 90% 0.00in /  0mm 0 W/m2
08:00 36.1 °F /  2.3 °C 33.5 °F /  0.8 °C 29.40in /  995.5hPa WNW 7.0mph /  11.3km/h 12.0mph /  19.3km/h 90% 0.00in /  0mm 0 W/m2
08:05 36.0 °F /  2.2 °C 33.3 °F /  0.7 °C 29.41in /  995.8hPa WNW 12.0mph /  19.3km/h 16.0mph /  25.7km/h 90% 0.00in /  0mm 5 W/m2
08:10 36.1 °F /  2.3 °C 33.5 °F /  0.8 °C 29.42in /  996.2hPa West 11.0mph /  17.7km/h 16.0mph /  25.7km/h 90% 0.00in /  0mm 5 W/m2
08:15 36.3 °F /  2.4 °C 33.7 °F /  0.9 °C 29.42in /  996.2hPa West 11.0mph /  17.7km/h 18.0mph /  29km/h 90% 0.00in /  0mm 7 W/m2
08:20 36.3 °F /  2.4 °C 33.7 °F /  0.9 °C 29.42in /  996.2hPa WNW 9.0mph /  14.5km/h 13.0mph /  20.9km/h 90% 0.00in /  0mm 9 W/m2
08:25 36.3 °F /  2.4 °C 33.7 °F /  0.9 °C 29.43in /  996.5hPa WNW 11.0mph /  17.7km/h 15.0mph /  24.1km/h 90% 0.00in /  0mm 11 W/m2
08:30 36.3 °F /  2.4 °C 33.7 °F /  0.9 °C 29.43in /  996.5hPa WNW 8.0mph /  12.9km/h 14.0mph /  22.5km/h 90% 0.00in /  0mm 12 W/m2
08:35 36.3 °F /  2.4 °C 33.7 °F /  0.9 °C 29.43in /  996.5hPa WNW 10.0mph /  16.1km/h 13.0mph /  20.9km/h 90% 0.00in /  0mm 14 W/m2
08:40 36.3 °F /  2.4 °C 33.7 °F /  0.9 °C 29.43in /  996.5hPa WNW 8.0mph /  12.9km/h 11.0mph /  17.7km/h 90% 0.00in /  0mm 16 W/m2
08:45 36.5 °F /  2.5 °C 33.8 °F /  1 °C 29.43in /  996.5hPa WNW 7.0mph /  11.3km/h 12.0mph /  19.3km/h 90% 0.00in /  0mm 18 W/m2
08:50 36.5 °F /  2.5 °C 33.8 °F /  1 °C 29.44in /  996.8hPa WNW 6.0mph /  9.7km/h 11.0mph /  17.7km/h 90% 0.00in /  0mm 18 W/m2
08:55 36.7 °F /  2.6 °C 34.0 °F /  1.1 °C 29.44in /  996.8hPa WNW 10.0mph /  16.1km/h 14.0mph /  22.5km/h 90% 0.00in /  0mm 21 W/m2
09:00 36.7 °F /  2.6 °C 34.0 °F /  1.1 °C 29.45in /  997.2hPa West 8.0mph /  12.9km/h 14.0mph /  22.5km/h 90% 0.00in /  0mm 26 W/m2
09:05 36.9 °F /  2.7 °C 34.2 °F /  1.2 °C 29.45in /  997.2hPa WNW 8.0mph /  12.9km/h 13.0mph /  20.9km/h 90% 0.00in /  0mm 28 W/m2
09:10 37.0 °F /  2.8 °C 34.4 °F /  1.3 °C 29.45in /  997.2hPa WNW 7.0mph /  11.3km/h 12.0mph /  19.3km/h 90% 0.00in /  0mm 49 W/m2
09:15 37.2 °F /  2.9 °C 34.6 °F /  1.4 °C 29.45in /  997.2hPa WNW 9.0mph /  14.5km/h 15.0mph /  24.1km/h 90% 0.00in /  0mm 46 W/m2
09:20 37.4 °F /  3 °C 34.7 °F /  1.5 °C 29.45in /  997.2hPa West 9.0mph /  14.5km/h 12.0mph /  19.3km/h 90% 0.00in /  0mm 58 W/m2
09:25 37.6 °F /  3.1 °C 34.9 °F /  1.6 °C 29.46in /  997.5hPa West 8.0mph /  12.9km/h 11.0mph /  17.7km/h 90% 0.00in /  0mm 35 W/m2
09:30 37.8 °F /  3.2 °C 35.1 °F /  1.7 °C 29.46in /  997.5hPa WSW 5.0mph /  8km/h 8.0mph /  12.9km/h 90% 0.00in /  0mm 30 W/m2
09:36 37.8 °F /  3.2 °C 35.1 °F /  1.7 °C 29.47in /  997.9hPa WNW 7.0mph /  11.3km/h 13.0mph /  20.9km/h 90% 0.00in /  0mm 46 W/m2
09:41 37.9 °F /  3.3 °C 35.3 °F /  1.8 °C 29.47in /  997.9hPa West 8.0mph /  12.9km/h 13.0mph /  20.9km/h 90% 0.00in /  0mm 176 W/m2
09:46 38.3 °F /  3.5 °C 35.6 °F /  2 °C 29.46in /  997.5hPa West 9.0mph /  14.5km/h 13.0mph /  20.9km/h 90% 0.00in /  0mm 65 W/m2
09:51 38.5 °F /  3.6 °C 35.5 °F /  1.9 °C 29.46in /  997.5hPa WNW 6.0mph /  9.7km/h 11.0mph /  17.7km/h 89% 0.00in /  0mm 169 W/m2
09:56 38.8 °F /  3.8 °C 35.9 °F /  2.2 °C 29.47in /  997.9hPa WNW 3.0mph /  4.8km/h 7.0mph /  11.3km/h 89% 0.00in /  0mm 76 W/m2
10:01 39.0 °F /  3.9 °C 36.1 °F /  2.3 °C 29.47in /  997.9hPa WNW 2.0mph /  3.2km/h 6.0mph /  9.7km/h 89% 0.00in /  0mm 91 W/m2
10:06 39.2 °F /  4 °C 36.2 °F /  2.3 °C 29.47in /  997.9hPa WNW 2.0mph /  3.2km/h 6.0mph /  9.7km/h 89% 0.00in /  0mm 81 W/m2
10:11 39.4 °F /  4.1 °C 36.4 °F /  2.4 °C 29.47in /  997.9hPa NNW 1.0mph /  1.6km/h 4.0mph /  6.4km/h 89% 0.00in /  0mm 47 W/m2
10:16 39.4 °F /  4.1 °C 36.1 °F /  2.3 °C 29.47in /  997.9hPa Calm     88% 0.00in /  0mm 79 W/m2
10:21 39.4 °F /  4.1 °C 36.1 °F /  2.3 °C 29.48in /  998.2hPa SW 3.0mph /  4.8km/h 7.0mph /  11.3km/h 88% 0.00in /  0mm 95 W/m2
10:26 39.4 °F /  4.1 °C 36.1 °F /  2.3 °C 29.48in /  998.2hPa West 2.0mph /  3.2km/h 4.0mph /  6.4km/h 88% 0.00in /  0mm 54 W/m2
10:31 39.4 °F /  4.1 °C 36.1 °F /  2.3 °C 29.48in /  998.2hPa Calm   3.0mph /  4.8km/h 88% 0.00in /  0mm 188 W/m2
10:36 39.6 °F /  4.2 °C 36.3 °F /  2.4 °C 29.48in /  998.2hPa WNW 1.0mph /  1.6km/h 5.0mph /  8km/h 88% 0.00in /  0mm 97 W/m2
10:41 39.6 °F /  4.2 °C 36.3 °F /  2.4 °C 29.48in /  998.2hPa WNW 1.0mph /  1.6km/h 5.0mph /  8km/h 88% 0.00in /  0mm 95 W/m2
10:46 39.9 °F /  4.4 °C 36.9 °F /  2.7 °C 29.48in /  998.2hPa Calm   1.0mph /  1.6km/h 89% 0.00in /  0mm 309 W/m2
10:51 40.5 °F /  4.7 °C 37.2 °F /  2.9 °C 29.48in /  998.2hPa WSW 3.0mph /  4.8km/h 5.0mph /  8km/h 88% 0.00in /  0mm 62 W/m2
10:56 40.6 °F /  4.8 °C 37.1 °F /  2.8 °C 29.48in /  998.2hPa SW 2.0mph /  3.2km/h 5.0mph /  8km/h 87% 0.00in /  0mm 123 W/m2
11:01 40.6 °F /  4.8 °C 37.1 °F /  2.8 °C 29.49in /  998.5hPa SW 6.0mph /  9.7km/h 10.0mph /  16.1km/h 87% 0.00in /  0mm 62 W/m2
11:06 40.5 °F /  4.7 °C 36.9 °F /  2.7 °C 29.49in /  998.5hPa WSW 5.0mph /  8km/h 9.0mph /  14.5km/h 87% 0.00in /  0mm 42 W/m2
11:11 40.3 °F /  4.6 °C 36.7 °F /  2.6 °C 29.49in /  998.5hPa WSW 5.0mph /  8km/h 10.0mph /  16.1km/h 87% 0.00in /  0mm 65 W/m2
11:16 40.3 °F /  4.6 °C 37.0 °F /  2.8 °C 29.49in /  998.5hPa West 6.0mph /  9.7km/h 10.0mph /  16.1km/h 88% 0.00in /  0mm 97 W/m2
11:21 40.3 °F /  4.6 °C 37.0 °F /  2.8 °C 29.49in /  998.5hPa West 4.0mph /  6.4km/h 7.0mph /  11.3km/h 88% 0.00in /  0mm 77 W/m2
11:26 40.3 °F /  4.6 °C 37.0 °F /  2.8 °C 29.49in /  998.5hPa West 3.0mph /  4.8km/h 7.0mph /  11.3km/h 88% 0.00in /  0mm 84 W/m2
11:31 40.3 °F /  4.6 °C 37.3 °F /  2.9 °C 29.49in /  998.5hPa WSW 3.0mph /  4.8km/h 7.0mph /  11.3km/h 89% 0.00in /  0mm 109 W/m2
11:36 40.3 °F /  4.6 °C 37.3 °F /  2.9 °C 29.49in /  998.5hPa West 4.0mph /  6.4km/h 8.0mph /  12.9km/h 89% 0.00in /  0mm 65 W/m2
11:41 40.5 °F /  4.7 °C 37.5 °F /  3.1 °C 29.49in /  998.5hPa WSW 4.0mph /  6.4km/h 7.0mph /  11.3km/h 89% 0.00in /  0mm 49 W/m2
11:46 40.5 °F /  4.7 °C 37.5 °F /  3.1 °C 29.49in /  998.5hPa West 5.0mph /  8km/h 9.0mph /  14.5km/h 89% 0.00in /  0mm 28 W/m2
11:51 40.5 °F /  4.7 °C 37.5 °F /  3.1 °C 29.49in /  998.5hPa West 2.0mph /  3.2km/h 5.0mph /  8km/h 89% 0.00in /  0mm 37 W/m2
11:56 40.6 °F /  4.8 °C 37.7 °F /  3.2 °C 29.49in /  998.5hPa West 7.0mph /  11.3km/h 11.0mph /  17.7km/h 89% 0.00in /  0mm 90 W/m2
12:01 40.6 °F /  4.8 °C 37.7 °F /  3.2 °C 29.49in /  998.5hPa WSW 5.0mph /  8km/h 8.0mph /  12.9km/h 89% 0.00in /  0mm 28 W/m2
12:06 40.6 °F /  4.8 °C 37.4 °F /  3 °C 29.49in /  998.5hPa West 8.0mph /  12.9km/h 14.0mph /  22.5km/h 88% 0.00in /  0mm 28 W/m2
12:11 40.6 °F /  4.8 °C 37.4 °F /  3 °C 29.49in /  998.5hPa West 9.0mph /  14.5km/h 13.0mph /  20.9km/h 88% 0.00in /  0mm 25 W/m2
12:16 40.5 °F /  4.7 °C 37.5 °F /  3.1 °C 29.49in /  998.5hPa WSW 7.0mph /  11.3km/h 13.0mph /  20.9km/h 89% 0.00in /  0mm 53 W/m2
12:21 40.3 °F /  4.6 °C 37.3 °F /  2.9 °C 29.49in /  998.5hPa West 5.0mph /  8km/h 8.0mph /  12.9km/h 89% 0.01in /  0.25mm 42 W/m2
12:26 40.1 °F /  4.5 °C 37.4 °F /  3 °C 29.49in /  998.5hPa WNW 8.0mph /  12.9km/h 11.0mph /  17.7km/h 90% 0.01in /  0.25mm 83 W/m2
12:31 39.9 °F /  4.4 °C 37.2 °F /  2.9 °C 29.49in /  998.5hPa West 8.0mph /  12.9km/h 13.0mph /  20.9km/h 90% 0.01in /  0.25mm 83 W/m2
12:36 39.7 °F /  4.3 °C 37.0 °F /  2.8 °C 29.49in /  998.5hPa West 7.0mph /  11.3km/h 11.0mph /  17.7km/h 90% 0.01in /  0.25mm 79 W/m2
12:41 39.7 °F /  4.3 °C 37.0 °F /  2.8 °C 29.49in /  998.5hPa West 9.0mph /  14.5km/h 12.0mph /  19.3km/h 90% 0.01in /  0.25mm 60 W/m2
12:46 39.6 °F /  4.2 °C 37.2 °F /  2.9 °C 29.49in /  998.5hPa WNW 7.0mph /  11.3km/h 10.0mph /  16.1km/h 91% 0.01in /  0.25mm 113 W/m2
12:51 39.6 °F /  4.2 °C 37.2 °F /  2.9 °C 29.49in /  998.5hPa West 7.0mph /  11.3km/h 12.0mph /  19.3km/h 91% 0.02in /  0.51mm 179 W/m2
12:56 39.7 °F /  4.3 °C 37.6 °F /  3.1 °C 29.49in /  998.5hPa WNW 7.0mph /  11.3km/h 9.0mph /  14.5km/h 92% 0.02in /  0.51mm 192 W/m2
13:02 39.9 °F /  4.4 °C 37.8 °F /  3.2 °C 29.49in /  998.5hPa NW 4.0mph /  6.4km/h 9.0mph /  14.5km/h 92% 0.02in /  0.51mm 100 W/m2
13:07 39.9 °F /  4.4 °C 37.8 °F /  3.2 °C 29.49in /  998.5hPa WNW 6.0mph /  9.7km/h 9.0mph /  14.5km/h 92% 0.02in /  0.51mm 42 W/m2
13:12 39.9 °F /  4.4 °C 37.8 °F /  3.2 °C 29.49in /  998.5hPa WNW 2.0mph /  3.2km/h 6.0mph /  9.7km/h 92% 0.02in /  0.51mm 39 W/m2
13:17 39.9 °F /  4.4 °C 37.8 °F /  3.2 °C 29.49in /  998.5hPa NW 5.0mph /  8km/h 8.0mph /  12.9km/h 92% 0.02in /  0.51mm 47 W/m2
13:22 39.7 °F /  4.3 °C 37.6 °F /  3.1 °C 29.50in /  998.9hPa WNW 9.0mph /  14.5km/h 15.0mph /  24.1km/h 92% 0.02in /  0.51mm 14 W/m2
13:27 39.6 °F /  4.2 °C 37.4 °F /  3 °C 29.49in /  998.5hPa West 6.0mph /  9.7km/h 11.0mph /  17.7km/h 92% 0.02in /  0.51mm 19 W/m2
13:32 39.4 °F /  4.1 °C 37.2 °F /  2.9 °C 29.49in /  998.5hPa West 9.0mph /  14.5km/h 13.0mph /  20.9km/h 92% 0.02in /  0.51mm 46 W/m2
13:37 39.0 °F /  3.9 °C 36.9 °F /  2.7 °C 29.49in /  998.5hPa West 5.0mph /  8km/h 8.0mph /  12.9km/h 92% 0.03in /  0.76mm 42 W/m2
13:42 39.0 °F /  3.9 °C 36.9 °F /  2.7 °C 29.49in /  998.5hPa West 2.0mph /  3.2km/h 5.0mph /  8km/h 92% 0.03in /  0.76mm 72 W/m2
13:47 39.0 °F /  3.9 °C 37.2 °F /  2.9 °C 29.49in /  998.5hPa Calm   2.0mph /  3.2km/h 93% 0.02in /  0.51mm 83 W/m2
13:52 39.0 °F /  3.9 °C 37.2 °F /  2.9 °C 29.49in /  998.5hPa Calm     93% 0.02in /  0.51mm 44 W/m2
14:02 39.0 °F /  3.9 °C 37.2 °F /  2.9 °C 29.49in /  998.5hPa West 2.0mph /  3.2km/h 4.0mph /  6.4km/h 93% 0.02in /  0.51mm 62 W/m2
14:07 38.8 °F /  3.8 °C 37.0 °F /  2.8 °C 29.49in /  998.5hPa West 2.0mph /  3.2km/h 6.0mph /  9.7km/h 93% 0.02in /  0.51mm 60 W/m2
14:12 38.8 °F /  3.8 °C 37.0 °F /  2.8 °C 29.50in /  998.9hPa West 1.0mph /  1.6km/h 4.0mph /  6.4km/h 93% 0.02in /  0.51mm 33 W/m2
14:17 38.7 °F /  3.7 °C 36.8 °F /  2.7 °C 29.50in /  998.9hPa SSW 3.0mph /  4.8km/h 5.0mph /  8km/h 93% 0.02in /  0.51mm 18 W/m2
14:22 38.5 °F /  3.6 °C 36.6 °F /  2.6 °C 29.50in /  998.9hPa SW 3.0mph /  4.8km/h 5.0mph /  8km/h 93% 0.02in /  0.51mm 25 W/m2
14:27 38.5 °F /  3.6 °C 36.6 °F /  2.6 °C 29.49in /  998.5hPa WSW 7.0mph /  11.3km/h 14.0mph /  22.5km/h 93% 0.01in /  0.25mm 47 W/m2
14:32 38.5 °F /  3.6 °C 36.6 °F /  2.6 °C 29.49in /  998.5hPa West 2.0mph /  3.2km/h 5.0mph /  8km/h 93% 0.01in /  0.25mm 26 W/m2
14:37 38.5 °F /  3.6 °C 36.6 °F /  2.6 °C 29.49in /  998.5hPa West 4.0mph /  6.4km/h 10.0mph /  16.1km/h 93% 0.00in /  0mm 32 W/m2
14:42 38.5 °F /  3.6 °C 36.6 °F /  2.6 °C 29.50in /  998.9hPa West 7.0mph /  11.3km/h 12.0mph /  19.3km/h 93% 0.00in /  0mm 44 W/m2
14:47 38.5 °F /  3.6 °C 36.6 °F /  2.6 °C 29.49in /  998.5hPa West 4.0mph /  6.4km/h 7.0mph /  11.3km/h 93% 0.00in /  0mm 56 W/m2
14:52 38.3 °F /  3.5 °C 36.5 °F /  2.5 °C 29.50in /  998.9hPa West 4.0mph /  6.4km/h 7.0mph /  11.3km/h 93% 0.00in /  0mm 42 W/m2
14:57 38.3 °F /  3.5 °C 36.5 °F /  2.5 °C 29.50in /  998.9hPa WSW 5.0mph /  8km/h 8.0mph /  12.9km/h 93% 0.00in /  0mm 37 W/m2
15:02 38.3 °F /  3.5 °C 36.5 °F /  2.5 °C 29.50in /  998.9hPa West 3.0mph /  4.8km/h 6.0mph /  9.7km/h 93% 0.00in /  0mm 40 W/m2
15:07 38.3 °F /  3.5 °C 36.5 °F /  2.5 °C 29.50in /  998.9hPa West 6.0mph /  9.7km/h 9.0mph /  14.5km/h 93% 0.00in /  0mm 35 W/m2
15:12 38.1 °F /  3.4 °C 36.3 °F /  2.4 °C 29.50in /  998.9hPa West 5.0mph /  8km/h 8.0mph /  12.9km/h 93% 0.00in /  0mm 32 W/m2
15:17 38.1 °F /  3.4 °C 36.3 °F /  2.4 °C 29.50in /  998.9hPa West 5.0mph /  8km/h 8.0mph /  12.9km/h 93% 0.00in /  0mm 30 W/m2
15:22 38.1 °F /  3.4 °C 36.3 °F /  2.4 °C 29.50in /  998.9hPa West 8.0mph /  12.9km/h 11.0mph /  17.7km/h 93% 0.00in /  0mm 23 W/m2
15:27 38.1 °F /  3.4 °C 36.3 °F /  2.4 °C 29.50in /  998.9hPa West 8.0mph /  12.9km/h 10.0mph /  16.1km/h 93% 0.00in /  0mm 16 W/m2
15:33 38.1 °F /  3.4 °C 36.3 °F /  2.4 °C 29.50in /  998.9hPa WSW 7.0mph /  11.3km/h 10.0mph /  16.1km/h 93% 0.00in /  0mm 14 W/m2
15:38 38.1 °F /  3.4 °C 36.3 °F /  2.4 °C 29.51in /  999.2hPa West 6.0mph /  9.7km/h 10.0mph /  16.1km/h 93% 0.00in /  0mm 14 W/m2
15:43 38.1 °F /  3.4 °C 36.3 °F /  2.4 °C 29.51in /  999.2hPa West 6.0mph /  9.7km/h 9.0mph /  14.5km/h 93% 0.00in /  0mm 12 W/m2
15:48 38.1 °F /  3.4 °C 36.3 °F /  2.4 °C 29.50in /  998.9hPa West 4.0mph /  6.4km/h 8.0mph /  12.9km/h 93% 0.00in /  0mm 12 W/m2
15:53 37.9 °F /  3.3 °C 35.8 °F /  2.1 °C 29.51in /  999.2hPa West 5.0mph /  8km/h 8.0mph /  12.9km/h 92% 0.00in /  0mm 11 W/m2
15:58 37.8 °F /  3.2 °C 35.6 °F /  2 °C 29.51in /  999.2hPa West 4.0mph /  6.4km/h 8.0mph /  12.9km/h 92% 0.00in /  0mm 11 W/m2
16:03 37.6 °F /  3.1 °C 35.5 °F /  1.9 °C 29.51in /  999.2hPa West 6.0mph /  9.7km/h 9.0mph /  14.5km/h 92% 0.00in /  0mm 9 W/m2
16:08 37.4 °F /  3 °C 35.6 °F /  2 °C 29.51in /  999.2hPa WNW 4.0mph /  6.4km/h 7.0mph /  11.3km/h 93% 0.00in /  0mm 7 W/m2
16:13 37.4 °F /  3 °C 35.6 °F /  2 °C 29.51in /  999.2hPa West 4.0mph /  6.4km/h 7.0mph /  11.3km/h 93% 0.00in /  0mm 5 W/m2
16:18 37.6 °F /  3.1 °C 35.7 °F /  2.1 °C 29.52in /  999.5hPa West 4.0mph /  6.4km/h 7.0mph /  11.3km/h 93% 0.00in /  0mm 0 W/m2
16:23 37.6 °F /  3.1 °C 35.7 °F /  2.1 °C 29.52in /  999.5hPa WNW 4.0mph /  6.4km/h 7.0mph /  11.3km/h 93% 0.00in /  0mm 0 W/m2
16:28 37.6 °F /  3.1 °C 35.7 °F /  2.1 °C 29.52in /  999.5hPa WNW 4.0mph /  6.4km/h 6.0mph /  9.7km/h 93% 0.00in /  0mm 0 W/m2
16:33 37.6 °F /  3.1 °C 35.7 °F /  2.1 °C 29.52in /  999.5hPa West 4.0mph /  6.4km/h 8.0mph /  12.9km/h 93% 0.00in /  0mm 0 W/m2
16:38 37.6 °F /  3.1 °C 35.7 °F /  2.1 °C 29.52in /  999.5hPa West 2.0mph /  3.2km/h 6.0mph /  9.7km/h 93% 0.00in /  0mm 0 W/m2
16:43 37.4 °F /  3 °C 35.6 °F /  2 °C 29.52in /  999.5hPa WNW 4.0mph /  6.4km/h 6.0mph /  9.7km/h 93% 0.00in /  0mm 0 W/m2
16:48 37.2 °F /  2.9 °C 35.4 °F /  1.9 °C 29.52in /  999.5hPa WNW 5.0mph /  8km/h 8.0mph /  12.9km/h 93% 0.00in /  0mm 0 W/m2
16:53 37.2 °F /  2.9 °C 35.4 °F /  1.9 °C 29.52in /  999.5hPa WNW 4.0mph /  6.4km/h 8.0mph /  12.9km/h 93% 0.00in /  0mm 0 W/m2
16:58 37.2 °F /  2.9 °C 35.4 °F /  1.9 °C 29.52in /  999.5hPa WNW 7.0mph /  11.3km/h 9.0mph /  14.5km/h 93% 0.00in /  0mm 0 W/m2
17:03 37.2 °F /  2.9 °C 35.4 °F /  1.9 °C 29.52in /  999.5hPa WNW 8.0mph /  12.9km/h 12.0mph /  19.3km/h 93% 0.00in /  0mm 0 W/m2
17:08 37.2 °F /  2.9 °C 35.4 °F /  1.9 °C 29.52in /  999.5hPa WNW 6.0mph /  9.7km/h 10.0mph /  16.1km/h 93% 0.00in /  0mm 0 W/m2
17:13 37.4 °F /  3 °C 35.8 °F /  2.1 °C 29.53in /  999.9hPa WNW 7.0mph /  11.3km/h 11.0mph /  17.7km/h 94% 0.00in /  0mm 0 W/m2
17:18 37.6 °F /  3.1 °C 36.0 °F /  2.2 °C 29.53in /  999.9hPa WNW 5.0mph /  8km/h 8.0mph /  12.9km/h 94% 0.00in /  0mm 0 W/m2
17:23 37.6 °F /  3.1 °C 36.0 °F /  2.2 °C 29.53in /  999.9hPa WNW 4.0mph /  6.4km/h 7.0mph /  11.3km/h 94% 0.00in /  0mm 0 W/m2
17:28 37.8 °F /  3.2 °C 36.2 °F /  2.3 °C 29.53in /  999.9hPa WNW 7.0mph /  11.3km/h 15.0mph /  24.1km/h 94% 0.01in /  0.25mm 0 W/m2
17:33 37.8 °F /  3.2 °C 36.2 °F /  2.3 °C 29.54in /  1000.2hPa WNW 7.0mph /  11.3km/h 11.0mph /  17.7km/h 94% 0.01in /  0.25mm 0 W/m2
17:38 37.8 °F /  3.2 °C 35.9 °F /  2.2 °C 29.54in /  1000.2hPa WNW 8.0mph /  12.9km/h 12.0mph /  19.3km/h 93% 0.01in /  0.25mm 0 W/m2
17:43 37.8 °F /  3.2 °C 35.9 °F /  2.2 °C 29.54in /  1000.2hPa West 9.0mph /  14.5km/h 14.0mph /  22.5km/h 93% 0.01in /  0.25mm 0 W/m2
17:48 37.6 °F /  3.1 °C 35.7 °F /  2.1 °C 29.54in /  1000.2hPa WNW 9.0mph /  14.5km/h 13.0mph /  20.9km/h 93% 0.01in /  0.25mm 0 W/m2
17:53 37.6 °F /  3.1 °C 35.7 °F /  2.1 °C 29.55in /  1000.6hPa West 8.0mph /  12.9km/h 15.0mph /  24.1km/h 93% 0.01in /  0.25mm 0 W/m2
17:58 37.2 °F /  2.9 °C 35.4 °F /  1.9 °C 29.55in /  1000.6hPa West 7.0mph /  11.3km/h 10.0mph /  16.1km/h 93% 0.01in /  0.25mm 0 W/m2
18:03 37.0 °F /  2.8 °C 35.2 °F /  1.8 °C 29.55in /  1000.6hPa West 7.0mph /  11.3km/h 10.0mph /  16.1km/h 93% 0.01in /  0.25mm 0 W/m2
18:08 37.0 °F /  2.8 °C 35.2 °F /  1.8 °C 29.55in /  1000.6hPa WNW 5.0mph /  8km/h 7.0mph /  11.3km/h 93% 0.01in /  0.25mm 0 W/m2
18:13 36.9 °F /  2.7 °C 35.0 °F /  1.7 °C 29.55in /  1000.6hPa WNW 6.0mph /  9.7km/h 9.0mph /  14.5km/h 93% 0.01in /  0.25mm 0 W/m2
18:19 36.9 °F /  2.7 °C 35.3 °F /  1.8 °C 29.55in /  1000.6hPa WNW 6.0mph /  9.7km/h 9.0mph /  14.5km/h 94% 0.01in /  0.25mm 0 W/m2
18:24 36.9 °F /  2.7 °C 35.3 °F /  1.8 °C 29.55in /  1000.6hPa WNW 7.0mph /  11.3km/h 10.0mph /  16.1km/h 94% 0.00in /  0mm 0 W/m2
18:29 36.9 °F /  2.7 °C 35.3 °F /  1.8 °C 29.55in /  1000.6hPa WNW 8.0mph /  12.9km/h 12.0mph /  19.3km/h 94% 0.00in /  0mm 0 W/m2
18:34 36.9 °F /  2.7 °C 35.3 °F /  1.8 °C 29.55in /  1000.6hPa WNW 7.0mph /  11.3km/h 10.0mph /  16.1km/h 94% 0.00in /  0mm 0 W/m2
18:39 36.9 °F /  2.7 °C 35.3 °F /  1.8 °C 29.55in /  1000.6hPa WNW 7.0mph /  11.3km/h 10.0mph /  16.1km/h 94% 0.00in /  0mm 0 W/m2
18:44 36.9 °F /  2.7 °C 35.3 °F /  1.8 °C 29.55in /  1000.6hPa West 5.0mph /  8km/h 7.0mph /  11.3km/h 94% 0.00in /  0mm 0 W/m2
18:49 36.7 °F /  2.6 °C 35.1 °F /  1.7 °C 29.55in /  1000.6hPa WSW 4.0mph /  6.4km/h 6.0mph /  9.7km/h 94% 0.00in /  0mm 0 W/m2
18:54 36.7 °F /  2.6 °C 35.1 °F /  1.7 °C 29.55in /  1000.6hPa WSW 2.0mph /  3.2km/h 5.0mph /  8km/h 94% 0.00in /  0mm 0 W/m2
18:59 36.3 °F /  2.4 °C 34.5 °F /  1.4 °C 29.56in /  1000.9hPa West 2.0mph /  3.2km/h 5.0mph /  8km/h 93% 0.00in /  0mm 0 W/m2
19:04 36.1 °F /  2.3 °C 34.3 °F /  1.3 °C 29.56in /  1000.9hPa WNW 3.0mph /  4.8km/h 6.0mph /  9.7km/h 93% 0.00in /  0mm 0 W/m2
19:09 36.1 °F /  2.3 °C 34.3 °F /  1.3 °C 29.56in /  1000.9hPa WNW 4.0mph /  6.4km/h 6.0mph /  9.7km/h 93% 0.00in /  0mm 0 W/m2
19:14 36.1 °F /  2.3 °C 34.6 °F /  1.4 °C 29.57in /  1001.2hPa West 5.0mph /  8km/h 7.0mph /  11.3km/h 94% 0.00in /  0mm 0 W/m2
19:19 36.1 °F /  2.3 °C 34.6 °F /  1.4 °C 29.57in /  1001.2hPa West 3.0mph /  4.8km/h 6.0mph /  9.7km/h 94% 0.00in /  0mm 0 W/m2
19:24 36.1 °F /  2.3 °C 34.6 °F /  1.4 °C 29.56in /  1000.9hPa WSW 5.0mph /  8km/h 8.0mph /  12.9km/h 94% 0.00in /  0mm 0 W/m2
19:29 36.3 °F /  2.4 °C 34.8 °F /  1.6 °C 29.57in /  1001.2hPa West 6.0mph /  9.7km/h 9.0mph /  14.5km/h 94% 0.00in /  0mm 0 W/m2
19:34 36.7 °F /  2.6 °C 35.1 °F /  1.7 °C 29.57in /  1001.2hPa West 7.0mph /  11.3km/h 11.0mph /  17.7km/h 94% 0.00in /  0mm 0 W/m2
19:39 36.9 °F /  2.7 °C 35.3 °F /  1.8 °C 29.57in /  1001.2hPa West 5.0mph /  8km/h 10.0mph /  16.1km/h 94% 0.00in /  0mm 0 W/m2
19:44 36.9 °F /  2.7 °C 35.3 °F /  1.8 °C 29.57in /  1001.2hPa West 7.0mph /  11.3km/h 10.0mph /  16.1km/h 94% 0.00in /  0mm 0 W/m2
19:49 37.0 °F /  2.8 °C 35.5 °F /  1.9 °C 29.57in /  1001.2hPa West 7.0mph /  11.3km/h 10.0mph /  16.1km/h 94% 0.00in /  0mm 0 W/m2
19:54 36.9 °F /  2.7 °C 35.3 °F /  1.8 °C 29.57in /  1001.2hPa West 5.0mph /  8km/h 8.0mph /  12.9km/h 94% 0.00in /  0mm 0 W/m2
19:59 36.9 °F /  2.7 °C 35.3 °F /  1.8 °C 29.57in /  1001.2hPa West 7.0mph /  11.3km/h 9.0mph /  14.5km/h 94% 0.00in /  0mm 0 W/m2
20:04 36.9 °F /  2.7 °C 35.3 °F /  1.8 °C 29.58in /  1001.6hPa West 7.0mph /  11.3km/h 13.0mph /  20.9km/h 94% 0.00in /  0mm 0 W/m2
20:09 36.9 °F /  2.7 °C 35.3 °F /  1.8 °C 29.58in /  1001.6hPa West 10.0mph /  16.1km/h 14.0mph /  22.5km/h 94% 0.00in /  0mm 0 W/m2
20:14 36.7 °F /  2.6 °C 35.1 °F /  1.7 °C 29.58in /  1001.6hPa West 7.0mph /  11.3km/h 10.0mph /  16.1km/h 94% 0.00in /  0mm 0 W/m2
20:19 36.7 °F /  2.6 °C 34.8 °F /  1.6 °C 29.58in /  1001.6hPa West 7.0mph /  11.3km/h 11.0mph /  17.7km/h 93% 0.00in /  0mm 0 W/m2
20:24 36.5 °F /  2.5 °C 34.7 °F /  1.5 °C 29.58in /  1001.6hPa West 7.0mph /  11.3km/h 10.0mph /  16.1km/h 93% 0.00in /  0mm 0 W/m2
20:29 36.5 °F /  2.5 °C 34.7 °F /  1.5 °C 29.58in /  1001.6hPa West 7.0mph /  11.3km/h 10.0mph /  16.1km/h 93% 0.00in /  0mm 0 W/m2
20:34 36.5 °F /  2.5 °C 34.7 °F /  1.5 °C 29.58in /  1001.6hPa West 8.0mph /  12.9km/h 12.0mph /  19.3km/h 93% 0.00in /  0mm 0 W/m2
20:39 36.5 °F /  2.5 °C 34.7 °F /  1.5 °C 29.59in /  1001.9hPa West 8.0mph /  12.9km/h 13.0mph /  20.9km/h 93% 0.00in /  0mm 0 W/m2
20:44 36.5 °F /  2.5 °C 34.7 °F /  1.5 °C 29.59in /  1001.9hPa West 8.0mph /  12.9km/h 12.0mph /  19.3km/h 93% 0.00in /  0mm 0 W/m2
20:50 36.5 °F /  2.5 °C 34.7 °F /  1.5 °C 29.59in /  1001.9hPa WNW 8.0mph /  12.9km/h 12.0mph /  19.3km/h 93% 0.00in /  0mm 0 W/m2
20:55 36.7 °F /  2.6 °C 34.8 °F /  1.6 °C 29.59in /  1001.9hPa West 8.0mph /  12.9km/h 11.0mph /  17.7km/h 93% 0.00in /  0mm 0 W/m2
21:00 36.7 °F /  2.6 °C 34.8 °F /  1.6 °C 29.59in /  1001.9hPa West 7.0mph /  11.3km/h 10.0mph /  16.1km/h 93% 0.00in /  0mm 0 W/m2
21:05 36.7 °F /  2.6 °C 34.6 °F /  1.4 °C 29.59in /  1001.9hPa West 8.0mph /  12.9km/h 11.0mph /  17.7km/h 92% 0.00in /  0mm 0 W/m2
21:10 36.5 °F /  2.5 °C 34.4 °F /  1.3 °C 29.59in /  1001.9hPa West 8.0mph /  12.9km/h 11.0mph /  17.7km/h 92% 0.00in /  0mm 0 W/m2
21:15 36.5 °F /  2.5 °C 34.4 °F /  1.3 °C 29.59in /  1001.9hPa West 8.0mph /  12.9km/h 11.0mph /  17.7km/h 92% 0.00in /  0mm 0 W/m2
21:20 36.5 °F /  2.5 °C 34.4 °F /  1.3 °C 29.59in /  1001.9hPa WNW 8.0mph /  12.9km/h 11.0mph /  17.7km/h 92% 0.00in /  0mm 0 W/m2
21:25 36.5 °F /  2.5 °C 34.4 °F /  1.3 °C 29.59in /  1001.9hPa WNW 9.0mph /  14.5km/h 14.0mph /  22.5km/h 92% 0.00in /  0mm 0 W/m2
21:30 36.7 °F /  2.6 °C 34.6 °F /  1.4 °C 29.59in /  1001.9hPa WNW 9.0mph /  14.5km/h 14.0mph /  22.5km/h 92% 0.00in /  0mm 0 W/m2
21:35 36.7 °F /  2.6 °C 34.6 °F /  1.4 °C 29.59in /  1001.9hPa West 9.0mph /  14.5km/h 12.0mph /  19.3km/h 92% 0.00in /  0mm 0 W/m2
21:40 36.7 °F /  2.6 °C 34.6 °F /  1.4 °C 29.59in /  1001.9hPa West 8.0mph /  12.9km/h 16.0mph /  25.7km/h 92% 0.00in /  0mm 0 W/m2
21:45 36.9 °F /  2.7 °C 34.8 °F /  1.6 °C 29.59in /  1001.9hPa West 9.0mph /  14.5km/h 13.0mph /  20.9km/h 92% 0.00in /  0mm 0 W/m2
21:50 36.9 °F /  2.7 °C 34.5 °F /  1.4 °C 29.59in /  1001.9hPa West 8.0mph /  12.9km/h 12.0mph /  19.3km/h 91% 0.00in /  0mm 0 W/m2
21:55 36.9 °F /  2.7 °C 34.5 °F /  1.4 °C 29.59in /  1001.9hPa West 9.0mph /  14.5km/h 15.0mph /  24.1km/h 91% 0.00in /  0mm 0 W/m2
22:00 36.7 °F /  2.6 °C 34.3 °F /  1.3 °C 29.59in /  1001.9hPa WNW 8.0mph /  12.9km/h 11.0mph /  17.7km/h 91% 0.00in /  0mm 0 W/m2
22:05 36.7 °F /  2.6 °C 34.3 °F /  1.3 °C 29.59in /  1001.9hPa WNW 10.0mph /  16.1km/h 15.0mph /  24.1km/h 91% 0.00in /  0mm 0 W/m2
22:10 36.7 °F /  2.6 °C 34.3 °F /  1.3 °C 29.59in /  1001.9hPa WNW 9.0mph /  14.5km/h 12.0mph /  19.3km/h 91% 0.00in /  0mm 0 W/m2
22:15 36.7 °F /  2.6 °C 34.3 °F /  1.3 °C 29.59in /  1001.9hPa WNW 10.0mph /  16.1km/h 15.0mph /  24.1km/h 91% 0.00in /  0mm 0 W/m2
22:20 36.7 °F /  2.6 °C 34.3 °F /  1.3 °C 29.59in /  1001.9hPa WNW 8.0mph /  12.9km/h 12.0mph /  19.3km/h 91% 0.00in /  0mm 0 W/m2
22:25 36.5 °F /  2.5 °C 34.1 °F /  1.2 °C 29.60in /  1002.3hPa WNW 8.0mph /  12.9km/h 13.0mph /  20.9km/h 91% 0.00in /  0mm 0 W/m2
22:30 36.5 °F /  2.5 °C 34.1 °F /  1.2 °C 29.60in /  1002.3hPa WNW 13.0mph /  20.9km/h 19.0mph /  30.6km/h 91% 0.00in /  0mm 0 W/m2
22:35 36.7 °F /  2.6 °C 34.3 °F /  1.3 °C 29.60in /  1002.3hPa WNW 11.0mph /  17.7km/h 19.0mph /  30.6km/h 91% 0.00in /  0mm 0 W/m2
22:40 36.7 °F /  2.6 °C 34.3 °F /  1.3 °C 29.60in /  1002.3hPa WNW 9.0mph /  14.5km/h 14.0mph /  22.5km/h 91% 0.00in /  0mm 0 W/m2
22:45 36.5 °F /  2.5 °C 33.8 °F /  1 °C 29.60in /  1002.3hPa WNW 9.0mph /  14.5km/h 15.0mph /  24.1km/h 90% 0.00in /  0mm 0 W/m2
22:50 36.3 °F /  2.4 °C 33.7 °F /  0.9 °C 29.60in /  1002.3hPa West 8.0mph /  12.9km/h 13.0mph /  20.9km/h 90% 0.00in /  0mm 0 W/m2
22:55 36.3 °F /  2.4 °C 33.7 °F /  0.9 °C 29.61in /  1002.6hPa West 7.0mph /  11.3km/h 13.0mph /  20.9km/h 90% 0.00in /  0mm 0 W/m2
23:00 36.3 °F /  2.4 °C 33.7 °F /  0.9 °C 29.61in /  1002.6hPa WNW 9.0mph /  14.5km/h 13.0mph /  20.9km/h 90% 0.00in /  0mm 0 W/m2
23:05 36.3 °F /  2.4 °C 33.9 °F /  1.1 °C 29.61in /  1002.6hPa WNW 9.0mph /  14.5km/h 15.0mph /  24.1km/h 91% 0.00in /  0mm 0 W/m2
23:10 36.3 °F /  2.4 °C 33.9 °F /  1.1 °C 29.61in /  1002.6hPa WNW 8.0mph /  12.9km/h 16.0mph /  25.7km/h 91% 0.00in /  0mm 0 W/m2
23:15 36.3 °F /  2.4 °C 33.9 °F /  1.1 °C 29.61in /  1002.6hPa WNW 9.0mph /  14.5km/h 12.0mph /  19.3km/h 91% 0.00in /  0mm 0 W/m2
23:20 36.3 °F /  2.4 °C 33.9 °F /  1.1 °C 29.61in /  1002.6hPa WNW 8.0mph /  12.9km/h 16.0mph /  25.7km/h 91% 0.00in /  0mm 0 W/m2
23:25 36.3 °F /  2.4 °C 33.9 °F /  1.1 °C 29.61in /  1002.6hPa WNW 8.0mph /  12.9km/h 12.0mph /  19.3km/h 91% 0.00in /  0mm 0 W/m2
23:30 36.3 °F /  2.4 °C 33.9 °F /  1.1 °C 29.61in /  1002.6hPa WNW 9.0mph /  14.5km/h 16.0mph /  25.7km/h 91% 0.00in /  0mm 0 W/m2
23:35 36.3 °F /  2.4 °C 33.9 °F /  1.1 °C 29.61in /  1002.6hPa WNW 10.0mph /  16.1km/h 15.0mph /  24.1km/h 91% 0.00in /  0mm 0 W/m2
23:40 36.5 °F /  2.5 °C 34.1 °F /  1.2 °C 29.61in /  1002.6hPa WNW 8.0mph /  12.9km/h 11.0mph /  17.7km/h 91% 0.00in /  0mm 0 W/m2
23:45 36.5 °F /  2.5 °C 34.1 °F /  1.2 °C 29.61in /  1002.6hPa WNW 7.0mph /  11.3km/h 13.0mph /  20.9km/h 91% 0.00in /  0mm 0 W/m2
23:50 36.3 °F /  2.4 °C 33.9 °F /  1.1 °C 29.62in /  1002.9hPa WNW 6.0mph /  9.7km/h 9.0mph /  14.5km/h 91% 0.00in /  0mm 0 W/m2
23:55 36.1 °F /  2.3 °C 33.5 °F /  0.8 °C 29.62in /  1002.9hPa WNW 6.0mph /  9.7km/h 10.0mph /  16.1km/h 90% 0.00in /  0mm 0 W/m2
Delerius Weather

Data updates at regular intervals.